YMML/MEL METAR and TAF weather

Enter ICAO airport designator
Station Type Date Time Source
YMML METAR 2018/12/19 09:00 UTC NOAA

YMML 190900Z 17007KT 9999 -SHRA NSC 22/17 Q1009


Station Type Date Time Source
YMML Decoded METAR 2018/12/19 09:00 UTC NOAA

Melbourne Airport, Australia (YMML) 37-40S 144-50E 141M
Dec 19, 2018 - 04:00 AM EST / 2018.12.19 0900 UTC
Wind: from the S (170 degrees) at 8 MPH (7 KT):0
Visibility: greater than 7 mile(s):0
Weather: light rain showers
Temperature: 71 F (22 C)
Dew Point: 62 F (17 C)
Relative Humidity: 73%
Pressure (altimeter): 29.80 in. Hg (1009 hPa)
ob: YMML 190900Z 17007KT 9999 -SHRA NSC 22/17 Q1009
cycle: 9

Station Type Date Time Source
YMML TAF 2018/12/19 06:39 UTC NOAA

TAF
AMD YMML 190533Z 1906/2012 VRB05KT 9999 -SHRA BKN110
BECMG 1910/1912 29005KT 9999 NSC
BECMG 1916/1918 24005KT 9999 -DZ SCT005 BKN008
BECMG 1922/1924 20012KT 9999 SCT012 BKN018
BECMG 2002/2004 19015G25KT 9999 FEW020 SCT025
BECMG 2009/2011 18012KT 9999 SCT010 BKN015 PROB30 1913/1922 2000 BR BKN003


Example: see airport list